createdAt,value
2018-09-06T00:02:31.175Z,11.87
2018-09-06T00:05:01.624Z,12.93
2018-09-06T00:07:31.945Z,11.33
2018-09-06T00:10:04.405Z,11.40
2018-09-06T00:12:34.783Z,12.53
2018-09-06T00:15:05.178Z,11.83
2018-09-06T00:17:54.670Z,9.97
2018-09-06T00:20:24.988Z,11.90
2018-09-06T00:22:55.374Z,9.53
2018-09-06T00:25:25.788Z,8.43
2018-09-06T00:27:56.863Z,8.40
2018-09-06T00:30:27.245Z,11.13
2018-09-06T00:32:57.649Z,9.63
2018-09-06T00:35:28.037Z,11.27
2018-09-06T00:38:00.469Z,7.47
2018-09-06T00:40:31.647Z,12.30
2018-09-06T00:43:02.037Z,11.67
2018-09-06T00:45:32.426Z,14.07
2018-09-06T00:48:02.821Z,9.20
2018-09-06T00:50:33.210Z,10.67
2018-09-06T00:53:03.604Z,10.90
2018-09-06T00:55:34.020Z,11.17
2018-09-06T00:58:08.432Z,12.03
2018-09-06T01:00:39.626Z,10.33
2018-09-06T01:03:10.048Z,10.07
2018-09-06T01:05:40.406Z,12.43
2018-09-06T01:08:11.558Z,10.57
2018-09-06T01:10:44.776Z,8.60
2018-09-06T01:13:15.148Z,11.23
2018-09-06T01:15:45.470Z,11.83
2018-09-06T01:18:15.884Z,10.03
2018-09-06T01:20:46.275Z,10.87
2018-09-06T01:23:16.652Z,11.57
2018-09-06T01:25:47.065Z,13.80
2018-09-06T01:28:17.468Z,9.83
2018-09-06T01:30:49.894Z,11.20
2018-09-06T01:33:21.061Z,9.60
2018-09-06T01:35:51.438Z,10.50
2018-09-06T01:38:21.866Z,10.47
2018-09-06T01:40:52.228Z,9.63
2018-09-06T01:43:23.373Z,11.13
2018-09-06T01:45:53.764Z,12.60
2018-09-06T01:56:16.288Z,11.80
2018-09-06T01:58:47.437Z,10.10
2018-09-06T02:01:18.584Z,12.27
2018-09-06T02:03:49.764Z,12.33
2018-09-06T02:06:20.145Z,10.30
2018-09-06T02:08:50.525Z,11.80
2018-09-06T02:11:43.106Z,11.93
2018-09-06T02:14:13.504Z,12.30
2018-09-06T02:17:05.325Z,10.87
2018-09-06T02:19:56.799Z,11.17
2018-09-06T02:22:28.987Z,12.03
2018-09-06T02:24:59.370Z,13.83
2018-09-06T02:27:29.750Z,10.10
2018-09-06T02:30:00.169Z,10.90
2018-09-06T02:32:30.539Z,13.20
2018-09-06T02:35:00.861Z,12.53
2018-09-06T02:37:31.269Z,10.97
2018-09-06T02:40:22.055Z,12.00
2018-09-06T02:42:52.460Z,12.00
2018-09-06T02:45:23.616Z,12.10
2018-09-06T02:47:53.998Z,11.13
2018-09-06T02:53:34.982Z,11.77
2018-09-06T02:56:05.403Z,11.07
2018-09-06T02:58:35.791Z,10.83
2018-09-06T03:01:06.358Z,14.83
2018-09-06T03:03:41.815Z,10.83
2018-09-06T03:06:13.220Z,12.67
2018-09-06T03:08:43.545Z,10.73
2018-09-06T03:11:14.717Z,10.10
2018-09-06T03:14:05.245Z,10.10
2018-09-06T03:16:35.676Z,10.67
2018-09-06T03:19:06.063Z,11.03
2018-09-06T03:21:38.503Z,11.23
2018-09-06T03:24:09.850Z,10.90
2018-09-06T03:26:40.233Z,10.03
2018-09-06T03:29:10.619Z,11.93
2018-09-06T03:31:41.045Z,11.10
2018-09-06T03:34:11.438Z,12.40
2018-09-06T03:36:41.833Z,12.83
2018-09-06T03:39:19.554Z,9.43
2018-09-06T03:41:49.866Z,11.60
2018-09-06T03:44:20.248Z,12.73
2018-09-06T03:46:50.671Z,11.27
2018-09-06T03:49:21.753Z,11.60
2018-09-06T03:52:11.542Z,12.10
2018-09-06T03:55:02.322Z,14.83
2018-09-06T03:57:32.739Z,13.57
2018-09-06T04:00:03.113Z,14.47
2018-09-06T04:02:33.496Z,13.90
2018-09-06T04:05:03.912Z,15.93
2018-09-06T04:07:35.315Z,15.67
2018-09-06T04:10:05.711Z,16.10
2018-09-06T04:12:36.158Z,14.70
2018-09-06T04:15:06.504Z,16.87
2018-09-06T04:17:37.658Z,16.60
2018-09-06T04:20:08.080Z,17.77
2018-09-06T04:22:38.451Z,18.30
2018-09-06T04:25:08.768Z,17.43
2018-09-06T04:27:39.191Z,15.87
2018-09-06T04:30:09.591Z,19.13
2018-09-06T04:32:39.994Z,19.90
2018-09-06T04:35:10.425Z,17.97
2018-09-06T04:37:40.812Z,18.83
2018-09-06T04:40:11.228Z,19.70
2018-09-06T04:42:41.657Z,19.37
2018-09-06T04:45:12.065Z,18.90
2018-09-06T04:47:43.210Z,15.77
2018-09-06T04:50:14.402Z,17.07
2018-09-06T04:52:44.801Z,17.80
2018-09-06T04:55:15.231Z,19.23
2018-09-06T04:57:46.379Z,19.00
2018-09-06T05:00:16.703Z,17.77
2018-09-06T05:02:47.095Z,20.37
2018-09-06T05:05:17.509Z,23.38
2018-09-06T05:07:47.888Z,16.63
2018-09-06T05:10:18.280Z,16.50
2018-09-06T05:12:49.451Z,17.13
2018-09-06T05:15:19.829Z,17.50
2018-09-06T05:17:50.222Z,18.13
2018-09-06T05:20:24.746Z,17.57
2018-09-06T05:22:59.226Z,18.20
2018-09-06T05:25:30.381Z,17.53
2018-09-06T05:28:01.586Z,19.00
2018-09-06T05:30:31.984Z,19.27
2018-09-06T05:33:09.555Z,17.37
2018-09-06T05:35:39.940Z,19.07
2018-09-06T05:38:10.322Z,16.20
2018-09-06T05:40:41.391Z,17.47
2018-09-06T05:43:31.159Z,18.70
2018-09-06T05:46:20.943Z,19.97
2018-09-06T05:49:10.728Z,17.87
2018-09-06T05:51:41.134Z,16.27
2018-09-06T05:54:11.528Z,19.07
2018-09-06T05:56:41.929Z,18.73
2018-09-06T05:59:12.357Z,14.83
2018-09-06T06:01:42.764Z,16.13
2018-09-06T06:04:13.159Z,14.10
2018-09-06T06:06:43.761Z,16.50
2018-09-06T06:09:14.908Z,15.23
2018-09-06T06:11:46.125Z,14.77
2018-09-06T06:14:16.480Z,15.20
2018-09-06T06:16:46.868Z,15.37
2018-09-06T06:19:17.249Z,15.37
2018-09-06T06:21:48.368Z,21.25
2018-09-06T06:24:18.772Z,16.73
2018-09-06T06:26:49.144Z,14.13
2018-09-06T06:29:19.548Z,17.10
2018-09-06T06:31:50.031Z,15.73
2018-09-06T06:34:20.344Z,13.37
2018-09-06T06:36:50.754Z,14.17
2018-09-06T06:39:21.173Z,15.80
2018-09-06T06:41:51.471Z,14.47
2018-09-06T06:44:21.883Z,15.27
2018-09-06T06:46:52.274Z,17.97
2018-09-06T06:49:23.378Z,17.77
2018-09-06T06:51:53.808Z,16.50
2018-09-06T06:54:24.193Z,16.90
2018-09-06T06:57:13.971Z,14.30
2018-09-06T07:00:04.490Z,15.97
2018-09-06T07:02:34.899Z,14.13
2018-09-06T07:05:12.608Z,16.23
2018-09-06T07:07:48.159Z,15.13
2018-09-06T07:10:18.562Z,15.87
2018-09-06T07:12:48.950Z,17.87
2018-09-06T07:18:06.156Z,19.60
2018-09-06T07:20:41.683Z,19.40
2018-09-06T07:23:32.415Z,17.90
2018-09-06T07:26:02.848Z,17.90
2018-09-06T07:28:33.420Z,17.03
2018-09-06T07:31:03.805Z,21.37
2018-09-06T07:33:34.220Z,17.63
2018-09-06T07:36:04.610Z,17.10
2018-09-06T07:38:35.006Z,17.67
2018-09-06T07:41:05.430Z,16.07
2018-09-06T07:43:36.591Z,17.53
2018-09-06T07:46:06.972Z,18.03
2018-09-06T07:48:37.575Z,18.83
2018-09-06T07:51:12.051Z,18.23
2018-09-06T07:53:43.249Z,18.33
2018-09-06T07:56:13.667Z,19.87
2018-09-06T07:58:45.083Z,18.17
2018-09-06T08:01:16.282Z,21.07
2018-09-06T08:03:46.680Z,20.27
2018-09-06T08:06:17.067Z,15.33
2018-09-06T08:08:47.473Z,17.80
2018-09-06T08:11:17.851Z,16.63
2018-09-06T08:13:48.241Z,19.87
2018-09-06T08:16:19.693Z,18.63
2018-09-06T08:18:50.121Z,15.97
2018-09-06T08:21:39.916Z,17.57
2018-09-06T08:24:11.083Z,16.27
2018-09-06T08:26:41.459Z,15.63
2018-09-06T08:29:11.885Z,16.40
2018-09-06T08:31:42.269Z,14.80
2018-09-06T08:34:12.657Z,14.23
2018-09-06T08:36:43.100Z,14.93
2018-09-06T08:39:13.464Z,13.20
2018-09-06T08:41:44.849Z,15.67
2018-09-06T08:44:15.279Z,13.90
2018-09-06T08:46:46.682Z,13.37
2018-09-06T08:49:17.018Z,15.77
2018-09-06T08:51:47.369Z,14.83
2018-09-06T08:54:17.759Z,14.30
2018-09-06T08:56:48.151Z,12.90
2018-09-06T08:59:20.365Z,9.93
2018-09-06T09:01:54.834Z,11.43
2018-09-06T09:04:25.225Z,10.90
2018-09-06T09:06:57.690Z,10.30
2018-09-06T09:09:28.089Z,10.13
2018-09-06T09:11:59.230Z,8.10
2018-09-06T09:14:30.416Z,9.57
2018-09-06T09:17:20.159Z,7.73
2018-09-06T09:19:50.638Z,7.60
2018-09-06T09:22:21.052Z,6.90
2018-09-06T09:24:51.644Z,8.73
2018-09-06T09:27:22.041Z,5.90
2018-09-06T09:29:52.449Z,6.87
2018-09-06T09:32:22.831Z,6.50
2018-09-06T09:34:53.237Z,6.43
2018-09-06T09:37:24.378Z,5.67
2018-09-06T09:39:55.521Z,5.33
2018-09-06T09:42:26.697Z,6.17
2018-09-06T09:44:57.087Z,6.33
2018-09-06T09:52:47.827Z,5.77
2018-09-06T09:55:18.223Z,6.80
2018-09-06T09:57:48.608Z,6.70
2018-09-06T10:00:19.023Z,6.83
2018-09-06T10:02:50.163Z,8.00
2018-09-06T10:05:20.593Z,6.90
2018-09-06T10:07:54.559Z,7.70
2018-09-06T10:10:24.941Z,5.40
2018-09-06T10:12:55.569Z,7.87
2018-09-06T10:15:25.965Z,7.40
2018-09-06T10:17:56.360Z,9.10
2018-09-06T10:20:26.773Z,5.73
2018-09-06T10:22:58.180Z,7.50
2018-09-06T10:25:28.573Z,6.93
2018-09-06T10:28:19.383Z,6.13
2018-09-06T10:30:49.780Z,7.33
2018-09-06T10:33:20.156Z,5.63
2018-09-06T10:35:50.571Z,6.00
2018-09-06T10:38:20.968Z,5.77
2018-09-06T10:40:51.326Z,6.07
2018-09-06T10:43:21.713Z,7.10
2018-09-06T10:45:52.094Z,6.73
2018-09-06T10:48:22.496Z,6.70
2018-09-06T10:50:54.196Z,5.80
2018-09-06T10:53:25.342Z,5.30
2018-09-06T10:55:56.514Z,6.80
2018-09-06T10:58:26.918Z,7.47
2018-09-06T11:00:57.302Z,4.63
2018-09-06T11:03:27.685Z,6.73
2018-09-06T11:05:59.116Z,4.90
2018-09-06T11:08:30.266Z,6.60
2018-09-06T11:11:03.457Z,3.63
2018-09-06T11:13:33.864Z,6.60
2018-09-06T11:16:05.031Z,4.77
2018-09-06T11:18:35.416Z,5.80
2018-09-06T11:21:05.897Z,4.50
2018-09-06T11:23:43.364Z,5.60
2018-09-06T11:26:14.523Z,4.13
2018-09-06T11:28:47.721Z,4.23
2018-09-06T11:31:18.041Z,3.80
2018-09-06T11:33:48.460Z,5.40
2018-09-06T11:39:02.894Z,4.73
2018-09-06T11:41:33.285Z,3.90
2018-09-06T11:44:03.709Z,4.30
2018-09-06T11:46:34.095Z,3.90
2018-09-06T11:49:04.474Z,4.33
2018-09-06T11:51:38.948Z,6.70
2018-09-06T11:54:10.116Z,4.20
2018-09-06T11:56:40.501Z,5.27
2018-09-06T11:59:10.895Z,4.50
2018-09-06T12:01:43.360Z,5.33
2018-09-06T12:04:13.751Z,5.67
2018-09-06T12:06:44.887Z,3.93
2018-09-06T12:09:16.315Z,3.70
2018-09-06T12:11:46.694Z,3.87
2018-09-06T12:14:17.087Z,3.77
2018-09-06T12:16:47.499Z,5.93
2018-09-06T12:19:17.934Z,3.70
2018-09-06T12:21:48.283Z,3.67
2018-09-06T12:24:19.481Z,4.83
2018-09-06T12:27:09.235Z,4.43
2018-09-06T12:29:39.643Z,5.77
2018-09-06T12:32:10.807Z,5.73
2018-09-06T12:34:41.134Z,4.13
2018-09-06T12:37:11.547Z,4.27
2018-09-06T12:39:41.935Z,4.47
2018-09-06T12:42:12.324Z,4.07
2018-09-06T12:44:43.410Z,5.70
2018-09-06T12:47:13.785Z,4.20
2018-09-06T12:49:44.249Z,4.00
2018-09-06T12:52:15.349Z,4.57
2018-09-06T12:54:45.737Z,3.60
2018-09-06T12:57:16.121Z,4.00
2018-09-06T12:59:52.656Z,3.73
2018-09-06T13:02:23.744Z,3.70
2018-09-06T13:04:54.069Z,3.53
2018-09-06T13:07:24.478Z,5.27
2018-09-06T13:09:54.858Z,3.93
2018-09-06T13:12:25.247Z,3.90
2018-09-06T13:14:57.714Z,5.63
2018-09-06T13:17:33.212Z,3.63
2018-09-06T13:20:04.399Z,4.70
2018-09-06T13:22:34.715Z,6.53
2018-09-06T13:25:05.114Z,4.20
2018-09-06T13:27:36.291Z,7.27
2018-09-06T13:30:06.680Z,10.27
2018-09-06T13:32:37.050Z,7.27
2018-09-06T13:35:07.469Z,6.73
2018-09-06T13:37:37.856Z,6.63
2018-09-06T13:40:08.230Z,6.83
2018-09-06T13:42:40.694Z,5.63
2018-09-06T13:45:11.088Z,6.33
2018-09-06T13:47:42.224Z,4.37
2018-09-06T13:50:12.632Z,4.80
2018-09-06T13:52:43.014Z,5.77
2018-09-06T13:55:13.410Z,5.97
2018-09-06T13:57:43.819Z,4.97
2018-09-06T14:00:14.382Z,8.33
2018-09-06T14:02:45.533Z,5.10
2018-09-06T14:05:15.962Z,5.03
2018-09-06T14:07:47.098Z,6.67
2018-09-06T14:10:21.114Z,5.37
2018-09-06T14:12:52.301Z,5.23
2018-09-06T14:15:26.781Z,5.63
2018-09-06T14:17:57.157Z,4.97
2018-09-06T14:20:27.553Z,5.40
2018-09-06T14:22:57.931Z,4.93
2018-09-06T14:25:28.311Z,5.50
2018-09-06T14:28:01.401Z,4.07
2018-09-06T14:30:33.812Z,4.17
2018-09-06T14:33:04.218Z,6.73
2018-09-06T14:35:34.640Z,4.23
2018-09-06T14:38:05.060Z,5.53
2018-09-06T14:40:37.929Z,6.33
2018-09-06T14:43:08.346Z,4.87
2018-09-06T14:45:38.736Z,4.13
2018-09-06T14:48:09.128Z,5.23
2018-09-06T14:50:46.521Z,6.03
2018-09-06T14:53:16.807Z,7.73
2018-09-06T14:55:47.964Z,7.10
2018-09-06T14:58:18.379Z,5.67
2018-09-06T15:00:49.534Z,6.53
2018-09-06T15:03:19.914Z,5.20
2018-09-06T15:05:50.314Z,4.13
2018-09-06T15:08:20.716Z,4.03
2018-09-06T15:13:35.371Z,4.17
2018-09-06T15:16:05.745Z,3.97
2018-09-06T15:18:41.290Z,4.33
2018-09-06T15:21:11.761Z,3.97
2018-09-06T15:23:42.145Z,4.00
2018-09-06T15:26:17.666Z,7.20
2018-09-06T15:28:48.051Z,7.00
2018-09-06T15:31:18.432Z,8.27
2018-09-06T15:33:48.871Z,4.87
2018-09-06T15:36:23.371Z,4.03
2018-09-06T15:38:53.824Z,5.43
2018-09-06T15:41:31.525Z,5.30
2018-09-06T15:44:01.928Z,5.20
2018-09-06T15:46:32.247Z,5.90
2018-09-06T15:49:02.716Z,4.73
2018-09-06T15:51:37.433Z,6.07
2018-09-06T15:54:13.969Z,4.43
2018-09-06T15:56:44.248Z,4.00
2018-09-06T15:59:14.731Z,5.63
2018-09-06T16:01:45.896Z,5.40
2018-09-06T16:04:35.321Z,6.37
2018-09-06T16:07:05.712Z,4.50
2018-09-06T16:09:36.914Z,3.47
2018-09-06T16:12:07.291Z,5.50
2018-09-06T16:14:37.679Z,4.40
2018-09-06T16:17:08.086Z,4.13
2018-09-06T16:19:39.264Z,5.50
2018-09-06T16:22:11.696Z,5.80
2018-09-06T16:24:42.824Z,4.93
2018-09-06T16:27:13.224Z,6.57
2018-09-06T16:29:49.694Z,4.80
2018-09-06T16:32:20.120Z,4.10
2018-09-06T16:35:09.629Z,4.07
2018-09-06T16:37:40.028Z,4.83
2018-09-06T16:40:10.422Z,4.63
2018-09-06T16:42:41.042Z,5.70
2018-09-06T16:45:11.445Z,4.10
2018-09-06T16:47:41.836Z,4.27
2018-09-06T16:50:16.316Z,3.73
2018-09-06T16:52:47.500Z,4.40
2018-09-06T16:55:23.502Z,5.30
2018-09-06T16:57:54.667Z,3.70
2018-09-06T17:00:25.064Z,4.60
2018-09-06T17:02:55.457Z,5.57
2018-09-06T17:05:50.095Z,4.63
2018-09-06T17:08:20.441Z,5.07
2018-09-06T17:10:50.834Z,3.97
2018-09-06T17:13:21.605Z,5.43
2018-09-06T17:15:51.975Z,5.17
2018-09-06T17:18:22.368Z,4.90
2018-09-06T17:20:52.788Z,4.83
2018-09-06T17:23:23.179Z,4.03
2018-09-06T17:25:53.575Z,5.27
2018-09-06T17:28:25.030Z,5.50
2018-09-06T17:30:55.408Z,5.63
2018-09-06T17:33:25.783Z,6.47
2018-09-06T17:35:56.186Z,6.43
2018-09-06T17:38:26.626Z,5.10
2018-09-06T17:40:56.961Z,9.10
2018-09-06T17:43:27.366Z,5.30
2018-09-06T17:45:57.741Z,4.27
2018-09-06T17:48:28.150Z,4.60
2018-09-06T17:50:58.549Z,5.17
2018-09-06T17:53:31.996Z,4.40
2018-09-06T17:56:02.384Z,5.10
2018-09-06T17:58:40.347Z,4.40
2018-09-06T18:01:11.423Z,5.73
2018-09-06T18:03:42.841Z,6.47
2018-09-06T18:06:14.012Z,4.30
2018-09-06T18:08:44.395Z,4.33
2018-09-06T18:11:15.548Z,5.93
2018-09-06T18:13:46.724Z,6.77
2018-09-06T18:16:17.115Z,5.17
2018-09-06T18:18:48.270Z,5.87
2018-09-06T18:21:18.688Z,5.90
2018-09-06T18:23:49.833Z,5.20
2018-09-06T18:26:20.991Z,4.47
2018-09-06T18:28:53.812Z,5.13
2018-09-06T18:31:43.591Z,5.80
2018-09-06T18:34:14.667Z,6.10
2018-09-06T18:36:44.982Z,4.40
2018-09-06T18:39:15.358Z,4.50
2018-09-06T18:41:45.760Z,4.07
2018-09-06T18:44:16.148Z,4.47
2018-09-06T18:46:46.524Z,5.70
2018-09-06T18:49:17.624Z,5.03
2018-09-06T18:51:48.018Z,5.67
2018-09-06T18:54:18.402Z,4.47
2018-09-06T18:56:48.990Z,4.70
2018-09-06T18:59:26.752Z,5.03
2018-09-06T19:02:02.350Z,5.70
2018-09-06T19:04:32.706Z,5.27
2018-09-06T19:07:03.084Z,5.53
2018-09-06T19:09:33.542Z,6.07
2018-09-06T19:12:03.859Z,4.93
2018-09-06T19:14:34.176Z,4.90
2018-09-06T19:17:23.954Z,4.93
2018-09-06T19:20:01.650Z,6.37
2018-09-06T19:22:51.421Z,7.27
2018-09-06T19:25:25.934Z,6.33
2018-09-06T19:27:56.584Z,8.10
2018-09-06T19:33:12.403Z,7.13
2018-09-06T19:35:42.757Z,8.10
2018-09-06T19:38:13.077Z,7.23
2018-09-06T19:40:43.395Z,7.90
2018-09-06T19:43:13.799Z,10.10
2018-09-06T19:45:46.215Z,9.03
2018-09-06T19:48:18.376Z,8.40
2018-09-06T19:50:48.717Z,8.63
2018-09-06T19:53:19.875Z,10.63
2018-09-06T19:55:51.055Z,10.07
2018-09-06T19:58:21.385Z,7.93
2018-09-06T20:01:12.280Z,8.67
2018-09-06T20:03:42.679Z,9.93
2018-09-06T20:06:13.050Z,9.67
2018-09-06T20:08:43.439Z,8.17
2018-09-06T20:11:13.866Z,8.57
2018-09-06T20:13:44.255Z,8.03
2018-09-06T20:16:14.575Z,9.13
2018-09-06T20:18:44.993Z,11.27
2018-09-06T20:21:15.373Z,9.33
2018-09-06T20:23:45.785Z,8.30
2018-09-06T20:26:16.981Z,7.40
2018-09-06T20:28:47.362Z,8.33
2018-09-06T20:31:17.753Z,11.57
2018-09-06T20:33:48.492Z,9.67
2018-09-06T20:36:18.749Z,11.10
2018-09-06T20:38:49.120Z,9.07
2018-09-06T20:41:19.456Z,8.37
2018-09-06T20:43:49.780Z,8.03
2018-09-06T20:46:20.157Z,9.17
2018-09-06T20:48:50.553Z,11.67
2018-09-06T20:51:20.879Z,7.47
2018-09-06T20:53:51.254Z,9.33
2018-09-06T20:56:21.665Z,7.00
2018-09-06T20:58:52.063Z,8.43
2018-09-06T21:01:23.205Z,9.37
2018-09-06T21:03:54.365Z,7.63
2018-09-06T21:06:25.530Z,6.70
2018-09-06T21:08:55.912Z,7.07
2018-09-06T21:11:26.332Z,10.07
2018-09-06T21:13:56.720Z,9.13
2018-09-06T21:16:27.156Z,8.47
2018-09-06T21:18:58.290Z,7.90
2018-09-06T21:21:28.677Z,8.93
2018-09-06T21:23:59.261Z,10.97
2018-09-06T21:26:30.684Z,7.73
2018-09-06T21:29:01.077Z,6.73
2018-09-06T21:31:31.451Z,5.13
2018-09-06T21:34:01.868Z,7.47
2018-09-06T21:36:32.243Z,7.30
2018-09-06T21:39:02.664Z,7.00
2018-09-06T21:41:33.052Z,6.63
2018-09-06T21:44:03.428Z,5.87
2018-09-06T21:46:33.736Z,5.77
2018-09-06T21:49:04.147Z,7.17
2018-09-06T21:51:35.157Z,9.70
2018-09-06T21:54:05.527Z,6.20
2018-09-06T21:56:35.935Z,5.70
2018-09-06T21:59:06.326Z,6.77
2018-09-06T22:01:36.642Z,5.97
2018-09-06T22:04:07.038Z,5.27
2018-09-06T22:06:37.425Z,6.87
2018-09-06T22:09:07.817Z,6.67
2018-09-06T22:11:38.222Z,7.20
2018-09-06T22:14:08.600Z,6.47
2018-09-06T22:16:38.976Z,8.07
2018-09-06T22:19:09.371Z,5.63
2018-09-06T22:21:39.759Z,6.83
2018-09-06T22:24:10.073Z,6.23
2018-09-06T22:26:41.116Z,7.67
2018-09-06T22:29:12.270Z,5.63
2018-09-06T22:31:43.429Z,8.23
2018-09-06T22:34:13.839Z,4.50
2018-09-06T22:36:44.229Z,7.73
2018-09-06T22:39:14.620Z,5.97
2018-09-06T22:41:44.967Z,6.30
2018-09-06T22:44:15.284Z,6.00
2018-09-06T22:46:45.657Z,6.60
2018-09-06T22:49:16.063Z,4.57
2018-09-06T22:51:46.457Z,5.67
2018-09-06T22:54:16.838Z,4.83
2018-09-06T22:56:47.240Z,5.97
2018-09-06T22:59:17.661Z,5.03
2018-09-06T23:01:48.005Z,4.17
2018-09-06T23:04:18.405Z,4.23
2018-09-06T23:06:48.781Z,4.90
2018-09-06T23:09:19.167Z,5.30
2018-09-06T23:11:49.568Z,4.07
2018-09-06T23:14:19.949Z,4.40
2018-09-06T23:16:50.320Z,6.50
2018-09-06T23:19:20.715Z,5.50
2018-09-06T23:24:35.371Z,4.07
2018-09-06T23:27:10.251Z,4.03
2018-09-06T23:29:40.654Z,3.83
2018-09-06T23:32:11.803Z,4.53
2018-09-06T23:34:42.180Z,4.43
2018-09-06T23:37:12.585Z,6.17
2018-09-06T23:39:42.961Z,6.50
2018-09-06T23:42:13.349Z,5.87
2018-09-06T23:44:43.757Z,3.87
2018-09-06T23:47:14.781Z,5.40
2018-09-06T23:49:45.171Z,4.83
2018-09-06T23:52:15.754Z,3.97
2018-09-06T23:54:46.130Z,5.97
2018-09-06T23:57:16.492Z,4.83
2018-09-06T23:59:46.908Z,4.23
